createdAt,value
2018-06-17T00:00:50.058Z,16.93
2018-06-17T00:01:49.778Z,16.93
2018-06-17T00:02:50.031Z,16.89
2018-06-17T00:03:50.285Z,16.93
2018-06-17T00:04:50.009Z,16.86
2018-06-17T00:05:49.989Z,16.88
2018-06-17T00:06:49.979Z,16.77
2018-06-17T00:07:50.242Z,16.86
2018-06-17T00:08:49.962Z,16.8
2018-06-17T00:09:49.956Z,16.75
2018-06-17T00:10:49.934Z,16.77
2018-06-17T00:11:50.202Z,16.7
2018-06-17T00:12:49.917Z,16.85
2018-06-17T00:13:49.955Z,16.71
2018-06-17T00:14:49.623Z,16.75
2018-06-17T00:15:49.887Z,16.78
2018-06-17T00:16:50.125Z,16.74
2018-06-17T00:17:49.859Z,16.75
2018-06-17T00:18:50.109Z,16.73
2018-06-17T00:19:50.091Z,16.71
2018-06-17T00:20:49.554Z,16.59
2018-06-17T00:21:49.814Z,16.58
2018-06-17T00:22:49.798Z,16.59
2018-06-17T00:23:50.094Z,16.65
2018-06-17T00:24:49.772Z,16.59
2018-06-17T00:25:49.758Z,16.48
2018-06-17T00:26:49.752Z,16.55
2018-06-17T00:27:49.474Z,16.52
2018-06-17T00:28:49.720Z,16.55
2018-06-17T00:29:49.986Z,16.49
2018-06-17T00:30:49.963Z,16.42
2018-06-17T00:31:49.950Z,16.42
2018-06-17T00:32:49.941Z,16.48
2018-06-17T00:33:49.930Z,16.41
2018-06-17T00:34:49.388Z,16.35
2018-06-17T00:35:49.379Z,16.35
2018-06-17T00:36:49.628Z,16.4
2018-06-17T00:37:49.623Z,16.33
2018-06-17T00:38:49.868Z,16.35
2018-06-17T00:39:49.326Z,16.34
2018-06-17T00:40:49.314Z,16.3
2018-06-17T00:41:49.875Z,16.33
2018-06-17T00:42:49.825Z,16.26
2018-06-17T00:43:49.547Z,16.26
2018-06-17T00:44:49.534Z,16.23
2018-06-17T00:45:49.527Z,16.22
2018-06-17T00:46:49.765Z,16.22
2018-06-17T00:47:49.493Z,16.2
2018-06-17T00:48:49.751Z,16.15
2018-06-17T00:49:49.209Z,16.09
2018-06-17T00:50:49.728Z,16.12
2018-06-17T00:51:49.444Z,16.11
2018-06-17T00:52:49.436Z,16.11
2018-06-17T00:53:49.681Z,16.04
2018-06-17T00:54:49.410Z,16.03
2018-06-17T00:55:49.409Z,16.04
2018-06-17T00:56:49.648Z,15.97
2018-06-17T00:57:49.371Z,15.93
2018-06-17T00:58:49.622Z,15.99
2018-06-17T00:59:49.613Z,16.04
2018-06-17T01:00:49.601Z,15.93
2018-06-17T01:01:49.318Z,15.92
2018-06-17T01:02:49.315Z,15.88
2018-06-17T01:03:49.294Z,15.92
2018-06-17T01:04:49.282Z,15.92
2018-06-17T01:05:49.537Z,15.94
2018-06-17T01:06:49.254Z,15.93
2018-06-17T01:07:49.253Z,15.89
2018-06-17T01:08:48.968Z,15.85
2018-06-17T01:09:49.689Z,15.84
2018-06-17T01:10:49.214Z,15.84
2018-06-17T01:11:48.936Z,15.88
2018-06-17T01:12:49.448Z,15.85
2018-06-17T01:13:49.174Z,15.85
2018-06-17T01:14:48.895Z,15.74
2018-06-17T01:15:49.410Z,15.78
2018-06-17T01:16:48.867Z,15.72
2018-06-17T01:17:48.855Z,15.79
2018-06-17T01:18:49.421Z,15.79
2018-06-17T01:19:49.359Z,15.82
2018-06-17T01:20:49.079Z,15.7
2018-06-17T01:21:49.330Z,15.75
2018-06-17T01:22:48.792Z,15.68
2018-06-17T01:23:49.311Z,15.74
2018-06-17T01:24:48.764Z,15.66
2018-06-17T01:25:49.028Z,15.64
2018-06-17T01:26:48.737Z,15.56
2018-06-17T01:27:48.996Z,15.59
2018-06-17T01:28:48.978Z,15.57
2018-06-17T01:29:48.974Z,15.54
2018-06-17T01:30:48.956Z,15.52
2018-06-17T01:31:48.942Z,15.57
2018-06-17T01:32:48.935Z,15.56
2018-06-17T01:33:49.183Z,15.51
2018-06-17T01:34:48.901Z,15.52
2018-06-17T01:35:49.157Z,15.49
2018-06-17T01:36:49.142Z,15.51
2018-06-17T01:37:48.602Z,15.57
2018-06-17T01:38:48.856Z,15.45
2018-06-17T01:39:49.109Z,15.54
2018-06-17T01:40:49.086Z,15.45
2018-06-17T01:41:48.811Z,15.45
2018-06-17T01:42:48.804Z,15.42
2018-06-17T01:43:48.524Z,15.45
2018-06-17T01:44:48.505Z,15.45
2018-06-17T01:45:48.760Z,15.48
2018-06-17T01:46:48.755Z,15.41
2018-06-17T01:47:48.736Z,15.38
2018-06-17T01:48:48.981Z,15.33
2018-06-17T01:49:48.970Z,15.35
2018-06-17T01:50:48.776Z,15.36
2018-06-17T01:51:48.477Z,15.39
2018-06-17T01:52:48.668Z,15.36
2018-06-17T01:53:48.651Z,15.33
2018-06-17T01:54:48.638Z,15.3
2018-06-17T01:55:48.630Z,15.21
2018-06-17T01:56:48.887Z,15.24
2018-06-17T01:57:48.881Z,15.26
2018-06-17T01:58:48.583Z,15.2
2018-06-17T01:59:48.842Z,15.28
2018-06-17T02:00:48.825Z,15.23
2018-06-17T02:01:48.810Z,15.27
2018-06-17T02:02:48.278Z,15.27
2018-06-17T02:03:48.781Z,15.27
2018-06-17T02:04:48.773Z,15.24
2018-06-17T02:05:48.497Z,15.21
2018-06-17T02:06:48.747Z,15.28
2018-06-17T02:07:48.469Z,15.27
2018-06-17T02:08:48.190Z,15.27
2018-06-17T02:09:48.702Z,15.2
2018-06-17T02:10:48.695Z,15.2
2018-06-17T02:11:48.464Z,15.17
2018-06-17T02:12:48.675Z,15.13
2018-06-17T02:13:48.438Z,15.11
2018-06-17T02:14:48.640Z,15.12
2018-06-17T02:15:48.365Z,15.12
2018-06-17T02:16:48.620Z,15.12
2018-06-17T02:17:48.596Z,15.12
2018-06-17T02:18:48.598Z,15.09
2018-06-17T02:19:48.568Z,15.05
2018-06-17T02:20:48.558Z,15.09
2018-06-17T02:21:48.555Z,15.11
2018-06-17T02:22:48.272Z,15.05
2018-06-17T02:23:47.998Z,15.09
2018-06-17T02:24:48.243Z,15.05
2018-06-17T02:25:48.231Z,15.05
2018-06-17T02:26:48.217Z,15.06
2018-06-17T02:27:48.208Z,14.98
2018-06-17T02:28:48.188Z,14.99
2018-06-17T02:29:48.439Z,15.03
2018-06-17T02:30:48.431Z,15.05
2018-06-17T02:31:48.149Z,15.02
2018-06-17T02:32:47.872Z,14.94
2018-06-17T02:33:48.120Z,14.98
2018-06-17T02:34:48.374Z,14.95
2018-06-17T02:35:48.144Z,14.95
2018-06-17T02:36:48.089Z,14.99
2018-06-17T02:37:48.329Z,14.94
2018-06-17T02:38:48.054Z,15.02
2018-06-17T02:39:48.311Z,15.02
2018-06-17T02:40:48.297Z,14.94
2018-06-17T02:41:48.013Z,14.99
2018-06-17T02:42:47.738Z,14.99
2018-06-17T02:43:48.257Z,14.98
2018-06-17T02:44:47.974Z,14.98
2018-06-17T02:45:48.238Z,14.95
2018-06-17T02:46:47.949Z,14.98
2018-06-17T02:47:48.258Z,15.03
2018-06-17T02:48:48.191Z,14.99
2018-06-17T02:49:47.942Z,15.01
2018-06-17T02:50:48.165Z,14.98
2018-06-17T02:51:47.881Z,14.94
2018-06-17T02:52:48.132Z,14.93
2018-06-17T02:53:47.587Z,14.99
2018-06-17T02:54:48.120Z,14.95
2018-06-17T02:55:47.828Z,15.02
2018-06-17T02:56:48.095Z,15.02
2018-06-17T02:57:47.536Z,15.03
2018-06-17T02:58:48.047Z,15.06
2018-06-17T02:59:47.775Z,15.11
2018-06-17T03:00:47.760Z,15.11
2018-06-17T03:01:48.008Z,15.17
2018-06-17T03:02:47.732Z,15.2
2018-06-17T03:03:47.863Z,15.13
2018-06-17T03:04:47.970Z,15.12
2018-06-17T03:05:47.958Z,15.17
2018-06-17T03:06:47.417Z,15.13
2018-06-17T03:07:47.933Z,15.19
2018-06-17T03:08:47.661Z,15.24
2018-06-17T03:09:47.575Z,15.23
2018-06-17T03:10:47.942Z,15.13
2018-06-17T03:11:47.931Z,15.28
2018-06-17T03:12:47.336Z,15.21
2018-06-17T03:13:47.919Z,15.26
2018-06-17T03:14:47.576Z,15.27
2018-06-17T03:15:47.570Z,15.28
2018-06-17T03:16:47.822Z,15.2
2018-06-17T03:17:47.800Z,15.23
2018-06-17T03:18:47.791Z,15.27
2018-06-17T03:19:47.769Z,15.24
2018-06-17T03:20:47.496Z,15.2
2018-06-17T03:21:47.759Z,15.24
2018-06-17T03:22:47.724Z,15.26
2018-06-17T03:23:47.461Z,15.13
2018-06-17T03:24:47.915Z,15.19
2018-06-17T03:25:47.428Z,15.21
2018-06-17T03:26:47.709Z,15.15
2018-06-17T03:27:47.684Z,15.21
2018-06-17T03:28:47.651Z,15.21
2018-06-17T03:29:47.639Z,15.26
2018-06-17T03:30:47.105Z,15.28
2018-06-17T03:31:47.358Z,15.21
2018-06-17T03:32:47.592Z,15.3
2018-06-17T03:33:47.590Z,15.33
2018-06-17T03:34:47.310Z,15.36
2018-06-17T03:35:47.565Z,15.31
2018-06-17T03:36:47.545Z,15.36
2018-06-17T03:37:47.528Z,15.45
2018-06-17T03:38:47.282Z,15.43
2018-06-17T03:39:47.251Z,15.49
2018-06-17T03:40:47.232Z,15.56
2018-06-17T03:41:47.220Z,15.49
2018-06-17T03:42:47.468Z,15.57
2018-06-17T03:43:47.193Z,15.52
2018-06-17T03:44:47.178Z,15.49
2018-06-17T03:45:47.168Z,15.56
2018-06-17T03:46:47.419Z,15.59
2018-06-17T03:47:47.437Z,15.64
2018-06-17T03:48:47.134Z,15.6
2018-06-17T03:49:47.109Z,15.7
2018-06-17T03:50:47.360Z,15.66
2018-06-17T03:51:47.355Z,15.67
2018-06-17T03:52:47.076Z,15.74
2018-06-17T03:53:46.792Z,15.72
2018-06-17T03:54:47.098Z,15.74
2018-06-17T03:55:47.289Z,15.75
2018-06-17T03:56:47.281Z,15.7
2018-06-17T03:57:47.273Z,15.78
2018-06-17T03:58:47.255Z,15.79
2018-06-17T03:59:46.980Z,15.76
2018-06-17T04:00:46.962Z,15.88
2018-06-17T04:01:46.958Z,15.82
2018-06-17T04:02:46.929Z,15.89
2018-06-17T04:03:46.926Z,15.92
2018-06-17T04:04:47.184Z,15.92
2018-06-17T04:05:46.899Z,15.92
2018-06-17T04:06:46.636Z,15.99
2018-06-17T04:07:46.885Z,15.97
2018-06-17T04:08:46.871Z,15.99
2018-06-17T04:09:46.851Z,16.01
2018-06-17T04:10:47.099Z,16
2018-06-17T04:11:46.824Z,16.06
2018-06-17T04:12:46.805Z,15.99
2018-06-17T04:13:46.526Z,16.01
2018-06-17T04:14:46.778Z,16.11
2018-06-17T04:15:46.500Z,16.15
2018-06-17T04:16:47.021Z,16.11
2018-06-17T04:17:46.741Z,16.09
2018-06-17T04:18:46.990Z,16.12
2018-06-17T04:19:46.717Z,16.14
2018-06-17T04:20:46.969Z,16.23
2018-06-17T04:21:46.687Z,16.2
2018-06-17T04:22:46.678Z,16.16
2018-06-17T04:23:46.402Z,16.15
2018-06-17T04:24:46.651Z,16.18
2018-06-17T04:25:47.074Z,16.22
2018-06-17T04:26:46.622Z,16.14
2018-06-17T04:27:46.926Z,16.18
2018-06-17T04:28:46.600Z,16.22
2018-06-17T04:29:46.852Z,16.2
2018-06-17T04:30:46.574Z,16.22
2018-06-17T04:31:46.562Z,16.26
2018-06-17T04:32:46.547Z,16.3
2018-06-17T04:33:46.530Z,16.27
2018-06-17T04:34:46.522Z,16.26
2018-06-17T04:35:46.505Z,16.23
2018-06-17T04:36:46.239Z,16.3
2018-06-17T04:37:46.743Z,16.3
2018-06-17T04:38:46.465Z,16.31
2018-06-17T04:39:46.456Z,16.3
2018-06-17T04:40:46.704Z,16.3
2018-06-17T04:41:46.427Z,16.26
2018-06-17T04:42:46.677Z,16.4
2018-06-17T04:43:46.399Z,16.37
2018-06-17T04:44:46.394Z,16.41
2018-06-17T04:45:46.431Z,16.4
2018-06-17T04:46:46.367Z,16.37
2018-06-17T04:47:46.091Z,16.37
2018-06-17T04:48:46.606Z,16.44
2018-06-17T04:49:46.332Z,16.45
2018-06-17T04:50:46.316Z,16.44
2018-06-17T04:51:46.569Z,16.45
2018-06-17T04:52:46.550Z,16.44
2018-06-17T04:53:46.277Z,16.5
2018-06-17T04:54:46.273Z,16.42
2018-06-17T04:55:46.256Z,16.45
2018-06-17T04:56:46.244Z,16.53
2018-06-17T04:57:45.964Z,16.45
2018-06-17T04:58:46.476Z,16.42
2018-06-17T04:59:45.939Z,16.49
2018-06-17T05:00:46.190Z,16.52
2018-06-17T05:01:46.181Z,16.52
2018-06-17T05:02:45.897Z,16.53
2018-06-17T05:03:46.146Z,16.56
2018-06-17T05:04:46.131Z,16.55
2018-06-17T05:05:46.129Z,16.59
2018-06-17T05:06:46.113Z,16.56
2018-06-17T05:07:46.099Z,16.65
2018-06-17T05:08:46.086Z,16.62
2018-06-17T05:09:46.679Z,16.58
2018-06-17T05:10:46.056Z,16.71
2018-06-17T05:11:45.779Z,16.62
2018-06-17T05:12:46.032Z,16.73
2018-06-17T05:13:45.754Z,16.73
2018-06-17T05:14:46.278Z,16.78
2018-06-17T05:15:45.992Z,16.86
2018-06-17T05:16:45.984Z,16.8
2018-06-17T05:17:46.241Z,16.8
2018-06-17T05:18:45.957Z,16.8
2018-06-17T05:19:46.205Z,16.8
2018-06-17T05:20:46.190Z,16.81
2018-06-17T05:21:46.181Z,16.81
2018-06-17T05:22:45.905Z,16.83
2018-06-17T05:23:45.889Z,16.78
2018-06-17T05:24:45.881Z,16.73
2018-06-17T05:25:46.131Z,16.75
2018-06-17T05:26:45.588Z,16.77
2018-06-17T05:27:45.841Z,16.78
2018-06-17T05:28:45.875Z,16.8
2018-06-17T05:29:46.078Z,16.85
2018-06-17T05:30:46.067Z,16.83
2018-06-17T05:31:45.792Z,16.77
2018-06-17T05:32:46.044Z,16.75
2018-06-17T05:33:46.145Z,16.86
2018-06-17T05:34:45.749Z,16.9
2018-06-17T05:35:45.745Z,16.88
2018-06-17T05:36:46.009Z,16.81
2018-06-17T05:37:46.023Z,16.93
2018-06-17T05:38:45.696Z,16.96
2018-06-17T05:39:45.425Z,17.07
2018-06-17T05:40:45.947Z,17.03
2018-06-17T05:41:45.400Z,17.06
2018-06-17T05:42:45.923Z,17
2018-06-17T05:43:45.646Z,17.07
2018-06-17T05:44:45.894Z,17.13
2018-06-17T05:45:45.883Z,17.11
2018-06-17T05:46:45.873Z,17.13
2018-06-17T05:47:45.599Z,17.2
2018-06-17T05:48:45.583Z,17.23
2018-06-17T05:49:45.838Z,17.25
2018-06-17T05:50:45.607Z,17.25
2018-06-17T05:51:45.544Z,17.25
2018-06-17T05:52:45.527Z,17.22
2018-06-17T05:53:45.524Z,17.25
2018-06-17T05:54:45.768Z,17.26
2018-06-17T05:55:45.650Z,17.26
2018-06-17T05:56:45.750Z,17.3
2018-06-17T05:57:45.731Z,17.33
2018-06-17T05:58:45.193Z,17.38
2018-06-17T05:59:45.442Z,17.38
2018-06-17T06:00:45.693Z,17.43
2018-06-17T06:01:45.736Z,17.46
2018-06-17T06:02:45.665Z,17.5
2018-06-17T06:03:45.661Z,17.54
2018-06-17T06:04:45.385Z,17.44
2018-06-17T06:05:45.108Z,17.53
2018-06-17T06:06:45.355Z,17.53
2018-06-17T06:07:45.612Z,17.44
2018-06-17T06:08:45.338Z,17.5
2018-06-17T06:09:45.324Z,17.62
2018-06-17T06:10:45.574Z,17.53
2018-06-17T06:11:45.559Z,17.59
2018-06-17T06:12:45.021Z,17.57
2018-06-17T06:13:45.274Z,17.66
2018-06-17T06:14:45.273Z,17.67
2018-06-17T06:15:45.251Z,17.67
2018-06-17T06:16:45.246Z,17.74
2018-06-17T06:17:45.494Z,17.84
2018-06-17T06:18:45.479Z,17.97
2018-06-17T06:19:45.473Z,18.42
2018-06-17T06:20:45.454Z,18.74
2018-06-17T06:21:45.454Z,18.92
2018-06-17T06:22:45.172Z,18.9
2018-06-17T06:23:45.423Z,18.76
2018-06-17T06:24:44.947Z,18.64
2018-06-17T06:25:45.140Z,18.64
2018-06-17T06:26:45.129Z,18.61
2018-06-17T06:27:45.117Z,18.54
2018-06-17T06:28:45.372Z,18.49
2018-06-17T06:29:45.365Z,18.43
2018-06-17T06:30:45.346Z,18.43
2018-06-17T06:31:45.074Z,18.42
2018-06-17T06:32:45.340Z,18.39
2018-06-17T06:33:45.313Z,18.37
2018-06-17T06:34:45.035Z,18.39
2018-06-17T06:35:45.029Z,18.31
2018-06-17T06:36:45.021Z,18.33
2018-06-17T06:37:44.751Z,18.33
2018-06-17T06:38:44.996Z,18.36
2018-06-17T06:39:45.250Z,18.4
2018-06-17T06:40:44.713Z,18.42
2018-06-17T06:41:45.226Z,18.44
2018-06-17T06:42:44.949Z,18.46
2018-06-17T06:43:45.207Z,18.52
2018-06-17T06:44:44.927Z,18.59
2018-06-17T06:45:45.076Z,18.55
2018-06-17T06:46:44.917Z,18.67
2018-06-17T06:47:44.894Z,19.13
2018-06-17T06:48:45.158Z,19.48
2018-06-17T06:49:44.875Z,19.98
2018-06-17T06:50:45.134Z,20.39
2018-06-17T06:51:44.874Z,20.33
2018-06-17T06:52:44.855Z,20.76
2018-06-17T06:53:44.839Z,20.96
2018-06-17T06:54:45.138Z,21.53
2018-06-17T06:55:45.077Z,21.75
2018-06-17T06:56:45.072Z,22.29
2018-06-17T06:57:44.795Z,22.83
2018-06-17T06:58:45.076Z,22.89
2018-06-17T06:59:44.825Z,23.15
2018-06-17T07:00:45.036Z,23.4
2018-06-17T07:01:45.029Z,24
2018-06-17T07:02:45.011Z,23.7
2018-06-17T07:03:44.733Z,23.77
2018-06-17T07:04:44.471Z,23.76
2018-06-17T07:05:44.451Z,23.75
2018-06-17T07:06:44.724Z,23.77
2018-06-17T07:07:44.753Z,23.05
2018-06-17T07:08:44.685Z,22.65
2018-06-17T07:09:44.671Z,22.2
2018-06-17T07:10:44.671Z,22.19
2018-06-17T07:11:44.929Z,22.17
2018-06-17T07:12:44.644Z,22.74
2018-06-17T07:13:44.631Z,22.99
2018-06-17T07:14:44.414Z,23.15
2018-06-17T07:15:44.352Z,23.49
2018-06-17T07:16:44.671Z,23.75
2018-06-17T07:17:44.854Z,23.82
2018-06-17T07:18:44.582Z,23.65
2018-06-17T07:19:44.626Z,23.53
2018-06-17T07:20:44.567Z,23.49
2018-06-17T07:21:44.559Z,23.4
2018-06-17T07:22:44.552Z,23.14
2018-06-17T07:23:44.276Z,23.08
2018-06-17T07:24:44.529Z,22.83
2018-06-17T07:25:44.784Z,22.56
2018-06-17T07:26:44.299Z,22.47
2018-06-17T07:27:44.512Z,22.49
2018-06-17T07:28:44.236Z,22.57
2018-06-17T07:29:44.767Z,22.72
2018-06-17T07:30:44.749Z,22.38
2018-06-17T07:31:44.490Z,22.43
2018-06-17T07:32:44.596Z,22.32
2018-06-17T07:33:44.735Z,22.02
2018-06-17T07:34:44.727Z,21.97
2018-06-17T07:35:44.192Z,22.06
2018-06-17T07:36:44.710Z,22.1
2018-06-17T07:37:44.706Z,22.14
2018-06-17T07:38:44.428Z,21.9
2018-06-17T07:39:44.687Z,21.63
2018-06-17T07:40:44.411Z,21.63
2018-06-17T07:41:44.680Z,21.42
2018-06-17T07:42:44.396Z,21.08
2018-06-17T07:43:44.469Z,21.08
2018-06-17T07:44:44.387Z,21.21
2018-06-17T07:45:44.638Z,21.27
2018-06-17T07:46:44.369Z,21.09
2018-06-17T07:47:44.367Z,21.29
2018-06-17T07:48:44.625Z,21.3
2018-06-17T07:49:44.083Z,21.59
2018-06-17T07:50:44.081Z,21.79
2018-06-17T07:51:44.333Z,21.74
2018-06-17T07:52:44.335Z,21.85
2018-06-17T07:53:44.323Z,22.23
2018-06-17T07:54:44.510Z,22.49
2018-06-17T07:55:44.505Z,22.72
2018-06-17T07:56:44.310Z,23.08
2018-06-17T07:57:44.025Z,23.26
2018-06-17T07:58:44.326Z,23.47
2018-06-17T07:59:44.289Z,23.62
2018-06-17T08:00:44.534Z,23.45
2018-06-17T08:01:44.533Z,23.14
2018-06-17T08:02:43.991Z,22.69
2018-06-17T08:03:43.987Z,22.1
2018-06-17T08:04:44.325Z,21.81
2018-06-17T08:05:43.973Z,21.85
2018-06-17T08:06:44.231Z,21.64
2018-06-17T08:07:44.220Z,21.45
2018-06-17T08:08:44.212Z,21.39
2018-06-17T08:09:44.205Z,21.29
2018-06-17T08:10:44.029Z,21.27
2018-06-17T08:11:44.203Z,21.63
2018-06-17T08:12:44.455Z,21.61
2018-06-17T08:13:44.202Z,21.44
2018-06-17T08:14:44.234Z,21.27
2018-06-17T08:15:44.436Z,21.08
2018-06-17T08:16:43.893Z,20.95
2018-06-17T08:17:43.896Z,20.69
2018-06-17T08:18:43.880Z,20.68
2018-06-17T08:19:44.410Z,20.72
2018-06-17T08:20:43.866Z,20.59
2018-06-17T08:21:44.136Z,20.65
2018-06-17T08:22:44.392Z,20.58
2018-06-17T08:23:44.115Z,20.56
2018-06-17T08:24:43.849Z,20.64
2018-06-17T08:25:44.360Z,20.59
2018-06-17T08:26:44.099Z,20.71
2018-06-17T08:27:44.104Z,20.62
2018-06-17T08:28:44.088Z,20.8
2018-06-17T08:29:44.352Z,20.83
2018-06-17T08:30:44.332Z,21.02
2018-06-17T08:31:44.310Z,21.32
2018-06-17T08:32:44.303Z,21.48
2018-06-17T08:33:44.358Z,21.45
2018-06-17T08:34:43.785Z,21.38
2018-06-17T08:35:44.079Z,21.17
2018-06-17T08:36:43.750Z,21.01
2018-06-17T08:37:44.013Z,20.95
2018-06-17T08:38:44.260Z,20.81
2018-06-17T08:39:44.267Z,20.51
2018-06-17T08:40:44.021Z,20.39
2018-06-17T08:41:44.239Z,20.38
2018-06-17T08:42:43.964Z,20.27
2018-06-17T08:43:44.214Z,20.43
2018-06-17T08:44:43.950Z,20.46
2018-06-17T08:45:43.930Z,20.46
2018-06-17T08:46:43.951Z,20.53
2018-06-17T08:47:44.197Z,20.66
2018-06-17T08:48:44.183Z,20.83
2018-06-17T08:49:44.160Z,20.79
2018-06-17T08:50:43.893Z,20.89
2018-06-17T08:51:43.925Z,20.93
2018-06-17T08:52:43.886Z,20.95
2018-06-17T08:53:43.876Z,21.02
2018-06-17T08:54:43.603Z,21.09
2018-06-17T08:55:44.138Z,21.13
2018-06-17T08:56:43.585Z,21.21
2018-06-17T08:57:43.569Z,21.24
2018-06-17T08:58:44.091Z,21.6
2018-06-17T08:59:43.827Z,21.88
2018-06-17T09:00:44.077Z,22.07
2018-06-17T09:01:44.075Z,22.14
2018-06-17T09:02:43.804Z,22.19
2018-06-17T09:03:43.804Z,22.16
2018-06-17T09:04:43.798Z,22.22
2018-06-17T09:05:44.045Z,22.04
2018-06-17T09:06:43.519Z,22.02
2018-06-17T09:07:43.769Z,22.04
2018-06-17T09:08:43.759Z,22.01
2018-06-17T09:09:44.023Z,21.99
2018-06-17T09:10:43.959Z,21.92
2018-06-17T09:11:44.006Z,21.79
2018-06-17T09:12:43.829Z,21.71
2018-06-17T09:13:43.992Z,21.69
2018-06-17T09:14:43.457Z,21.6
2018-06-17T09:15:43.725Z,21.53
2018-06-17T09:16:43.711Z,21.54
2018-06-17T09:17:43.969Z,21.36
2018-06-17T09:18:43.973Z,21.45
2018-06-17T09:19:43.960Z,21.41
2018-06-17T09:20:43.422Z,21.38
2018-06-17T09:21:43.673Z,21.39
2018-06-17T09:22:43.937Z,21.39
2018-06-17T09:23:43.655Z,21.53
2018-06-17T09:24:43.651Z,21.57
2018-06-17T09:25:43.911Z,21.57
2018-06-17T09:26:43.902Z,21.41
2018-06-17T09:27:43.629Z,21.27
2018-06-17T09:28:43.883Z,21.19
2018-06-17T09:29:43.888Z,21.11
2018-06-17T09:30:43.612Z,20.91
2018-06-17T09:31:43.739Z,20.96
2018-06-17T09:32:43.603Z,20.98
2018-06-17T09:33:43.863Z,20.84
2018-06-17T09:34:43.313Z,20.68
2018-06-17T09:35:43.569Z,20.72
2018-06-17T09:36:43.303Z,20.64
2018-06-17T09:37:43.550Z,20.64
2018-06-17T09:38:43.550Z,20.54
2018-06-17T09:39:43.808Z,20.47
2018-06-17T09:40:43.273Z,20.5
2018-06-17T09:41:43.525Z,20.39
2018-06-17T09:42:43.790Z,20.39
2018-06-17T09:43:43.510Z,20.41
2018-06-17T09:44:43.509Z,20.35
2018-06-17T09:45:43.499Z,20.5
2018-06-17T09:46:43.495Z,20.56
2018-06-17T09:47:43.479Z,20.58
2018-06-17T09:48:43.734Z,20.72
2018-06-17T09:49:43.724Z,20.79
2018-06-17T09:50:43.448Z,20.64
2018-06-17T09:51:43.704Z,20.69
2018-06-17T09:52:43.698Z,20.68
2018-06-17T09:53:43.428Z,20.65
2018-06-17T09:54:43.685Z,20.69
2018-06-17T09:55:43.146Z,20.65
2018-06-17T09:56:43.672Z,20.5
2018-06-17T09:57:43.661Z,20.61
2018-06-17T09:58:43.659Z,20.71
2018-06-17T09:59:43.640Z,20.65
2018-06-17T10:00:43.361Z,20.72
2018-06-17T10:01:43.656Z,20.84
2018-06-17T10:02:43.350Z,20.83
2018-06-17T10:03:43.603Z,20.83
2018-06-17T10:04:43.072Z,20.86
2018-06-17T10:05:43.324Z,20.83
2018-06-17T10:06:43.314Z,20.8
2018-06-17T10:07:43.570Z,20.79
2018-06-17T10:08:43.562Z,20.81
2018-06-17T10:09:43.289Z,20.68
2018-06-17T10:10:43.280Z,20.54
2018-06-17T10:11:43.267Z,20.43
2018-06-17T10:12:43.257Z,20.5
2018-06-17T10:13:43.308Z,20.64
2018-06-17T10:14:42.984Z,20.61
2018-06-17T10:15:43.503Z,20.65
2018-06-17T10:16:43.228Z,20.64
2018-06-17T10:17:43.222Z,20.58
2018-06-17T10:18:43.482Z,20.62
2018-06-17T10:19:43.198Z,20.71
2018-06-17T10:20:42.930Z,20.83
2018-06-17T10:21:43.234Z,20.87
2018-06-17T10:22:43.436Z,20.87
2018-06-17T10:23:43.433Z,20.68
2018-06-17T10:24:42.896Z,20.77
2018-06-17T10:25:42.887Z,20.74
2018-06-17T10:26:42.875Z,20.56
2018-06-17T10:27:43.398Z,20.58
2018-06-17T10:28:42.861Z,20.46
2018-06-17T10:29:43.116Z,20.41
2018-06-17T10:30:43.371Z,20.39
2018-06-17T10:31:42.837Z,20.42
2018-06-17T10:32:43.353Z,20.49
2018-06-17T10:33:42.817Z,20.51
2018-06-17T10:34:43.065Z,20.64
2018-06-17T10:35:43.069Z,20.61
2018-06-17T10:36:43.321Z,20.74
2018-06-17T10:37:43.048Z,20.68
2018-06-17T10:38:43.041Z,20.79
2018-06-17T10:39:42.761Z,20.62
2018-06-17T10:40:43.287Z,20.71
2018-06-17T10:41:42.741Z,20.68
2018-06-17T10:42:43.265Z,20.71
2018-06-17T10:43:42.724Z,20.84
2018-06-17T10:44:42.984Z,20.83
2018-06-17T10:45:42.714Z,20.84
2018-06-17T10:46:42.709Z,20.93
2018-06-17T10:47:42.693Z,21.01
2018-06-17T10:48:43.219Z,20.93
2018-06-17T10:49:42.944Z,20.96
2018-06-17T10:50:43.213Z,20.91
2018-06-17T10:51:42.926Z,20.98
2018-06-17T10:52:42.914Z,20.9
2018-06-17T10:53:43.165Z,20.8
2018-06-17T10:54:42.899Z,20.8
2018-06-17T10:55:43.117Z,20.77
2018-06-17T10:56:42.876Z,20.65
2018-06-17T10:57:43.132Z,20.69
2018-06-17T10:58:42.861Z,20.72
2018-06-17T10:59:43.120Z,20.56
2018-06-17T11:00:42.846Z,20.61
2018-06-17T11:01:43.101Z,20.51
2018-06-17T11:02:42.565Z,20.53
2018-06-17T11:03:42.821Z,20.59
2018-06-17T11:04:43.074Z,20.62
2018-06-17T11:05:43.054Z,20.53
2018-06-17T11:06:43.055Z,20.51
2018-06-17T11:07:43.051Z,20.5
2018-06-17T11:08:43.038Z,20.47
2018-06-17T11:09:43.034Z,20.43
2018-06-17T11:10:42.708Z,20.51
2018-06-17T11:11:42.753Z,20.41
2018-06-17T11:12:42.738Z,20.46
2018-06-17T11:13:43.000Z,20.49
2018-06-17T11:14:42.734Z,20.43
2018-06-17T11:15:42.991Z,20.43
2018-06-17T11:16:42.712Z,20.35
2018-06-17T11:17:42.701Z,20.27
2018-06-17T11:18:42.693Z,20.28
2018-06-17T11:19:43.094Z,20.38
2018-06-17T11:20:42.943Z,20.28
2018-06-17T11:21:42.924Z,20.28
2018-06-17T11:22:42.660Z,20.24
2018-06-17T11:23:42.920Z,20.31
2018-06-17T11:24:42.898Z,20.39
2018-06-17T11:25:42.894Z,20.41
2018-06-17T11:26:42.695Z,20.34
2018-06-17T11:27:42.617Z,20.41
2018-06-17T11:28:42.609Z,20.53
2018-06-17T11:29:42.585Z,20.58
2018-06-17T11:30:42.855Z,20.61
2018-06-17T11:31:42.575Z,20.54
2018-06-17T11:32:42.563Z,20.61
2018-06-17T11:33:42.574Z,20.64
2018-06-17T11:34:42.549Z,20.69
2018-06-17T11:35:42.545Z,20.76
2018-06-17T11:36:42.260Z,20.87
2018-06-17T11:37:42.793Z,20.87
2018-06-17T11:38:42.513Z,20.93
2018-06-17T11:39:42.525Z,20.77
2018-06-17T11:40:42.231Z,20.86
2018-06-17T11:41:42.747Z,20.9
2018-06-17T11:42:42.746Z,21.02
2018-06-17T11:43:42.471Z,20.99
2018-06-17T11:44:42.229Z,21.05
2018-06-17T11:45:42.719Z,20.96
2018-06-17T11:46:42.442Z,20.99
2018-06-17T11:47:42.453Z,20.8
2018-06-17T11:48:42.697Z,20.8
2018-06-17T11:49:42.418Z,20.66
2018-06-17T11:50:42.412Z,20.64
2018-06-17T11:51:42.684Z,20.5
2018-06-17T11:52:42.400Z,20.5
2018-06-17T11:53:42.382Z,20.5
2018-06-17T11:54:42.111Z,20.61
2018-06-17T11:55:42.376Z,20.66
2018-06-17T11:56:42.369Z,20.54
2018-06-17T11:57:42.104Z,20.68
2018-06-17T11:58:42.137Z,20.65
2018-06-17T11:59:42.654Z,20.71
2018-06-17T12:00:42.331Z,20.71
2018-06-17T12:01:42.317Z,20.79
2018-06-17T12:02:42.311Z,20.68
2018-06-17T12:03:42.562Z,20.58
2018-06-17T12:04:42.027Z,20.58
2018-06-17T12:05:42.280Z,20.53
2018-06-17T12:06:42.570Z,20.53
2018-06-17T12:07:42.322Z,20.5
2018-06-17T12:08:42.254Z,20.58
2018-06-17T12:09:42.706Z,20.65
2018-06-17T12:10:42.516Z,20.8
2018-06-17T12:11:42.242Z,20.58
2018-06-17T12:12:42.493Z,20.66
2018-06-17T12:13:42.222Z,20.46
2018-06-17T12:14:42.546Z,20.46
2018-06-17T12:15:42.465Z,20.43
2018-06-17T12:16:42.469Z,20.31
2018-06-17T12:17:42.440Z,20.21
2018-06-17T12:18:42.450Z,20.3
2018-06-17T12:19:42.435Z,20.2
2018-06-17T12:20:41.888Z,20.21
2018-06-17T12:21:42.157Z,20.31
2018-06-17T12:22:41.877Z,20.28
2018-06-17T12:23:42.131Z,20.35
2018-06-17T12:24:42.389Z,20.46
2018-06-17T12:25:42.391Z,20.51
2018-06-17T12:26:42.165Z,20.58
2018-06-17T12:27:42.136Z,20.72
2018-06-17T12:28:42.120Z,20.68
2018-06-17T12:29:41.866Z,20.81
2018-06-17T12:30:42.334Z,20.8
2018-06-17T12:31:42.332Z,20.71
2018-06-17T12:32:42.106Z,20.81
2018-06-17T12:33:41.785Z,20.66
2018-06-17T12:34:42.116Z,20.61
2018-06-17T12:35:42.025Z,20.41
2018-06-17T12:36:42.024Z,20.38
2018-06-17T12:37:42.023Z,20.38
2018-06-17T12:38:42.279Z,20.28
2018-06-17T12:39:42.000Z,20.33
2018-06-17T12:40:42.340Z,20.28
2018-06-17T12:41:42.239Z,20.25
2018-06-17T12:42:41.968Z,20.15
2018-06-17T12:43:41.959Z,20.13
2018-06-17T12:44:41.954Z,20.15
2018-06-17T12:45:42.209Z,20.09
2018-06-17T12:46:41.937Z,20.18
2018-06-17T12:47:41.667Z,20.13
2018-06-17T12:48:41.913Z,20.12
2018-06-17T12:49:41.904Z,20.1
2018-06-17T12:50:41.900Z,20.1
2018-06-17T12:51:41.896Z,20.15
2018-06-17T12:52:41.884Z,20.08
2018-06-17T12:53:42.135Z,20.03
2018-06-17T12:54:41.598Z,19.95
2018-06-17T12:55:41.590Z,19.97